Capt Boo — WDC3044 — position and weather

sailwx.info

Track history (hours):
 
Tides and Currents Weather Stations Pressure Air Temp Water Temp Dewpoint Dewpoint Depression Visibility Wind Speed Wind Dir Waves Ship Positions

Capt Boo

Owner: CNETRAL BOAT RENTALS, BERWICK, LA. More information available from US FCC via Universal Licensing System and Coast Guard Vessel Documentation Center.

Last reported at 2017-Nov-17 03:13 UTC. Time now 2017-Nov-17 23:13 UTC.
Position N 29°26' W 090°43'.

Length 6 m; draft 2.3 m.

Type: Towing. MMSI: 367001950.

Date/timePositionNaut miles runAvg speedWind from/ knotsBaromVisibWave heightAir tempDewpointWater temp
2017-Nov-17 03:13N 29°26' W 090°43'1 4.8
2017-Nov-17 03:00N 29°27' W 090°43'2 4.6
2017-Nov-17 02:30N 29°29' W 090°43'2 4.5
2017-Nov-17 02:00N 29°31' W 090°42'2 4.4
2017-Nov-17 01:30N 29°34' W 090°43'1 2.8
2017-Nov-17 01:00N 29°34' W 090°44'1 1.3
2017-Nov-17 00:30N 29°34' W 090°45'1 1.0
2017-Nov-17 00:00N 29°33' W 090°45'1 2.9
2017-Nov-16 23:30N 29°32' W 090°46'3 5.7
2017-Nov-16 23:00N 29°32' W 090°50'55 3.3
2017-Nov-16 06:13N 29°49' W 091°50'7 1.9
2017-Nov-16 02:37N 29°50' W 091°58'1 5.6
2017-Nov-16 02:30N 29°50' W 091°58'3 5.8
2017-Nov-16 02:00N 29°49' W 092°01'3 5.9
2017-Nov-16 01:29N 29°48' W 092°05'3 6.0
2017-Nov-16 01:00N 29°47' W 092°08'2 3.5
2017-Nov-16 00:30N 29°47' W 092°10'0 0.1
2017-Nov-16 00:00N 29°47' W 092°10'0 0.0
2017-Nov-15 23:30N 29°47' W 092°10'0 0.0
2017-Nov-15 23:00N 29°47' W 092°10'0 0.0
2017-Nov-15 22:30N 29°47' W 092°10'0 0.0
2017-Nov-15 22:00N 29°47' W 092°10'0 0.0
2017-Nov-15 21:30N 29°47' W 092°10'0 0.0
2017-Nov-15 21:00N 29°47' W 092°10'0 0.0
2017-Nov-15 20:30N 29°47' W 092°10'0 0.0
2017-Nov-15 20:00N 29°47' W 092°10'0 0.0
2017-Nov-15 19:30N 29°47' W 092°10'0 0.0
2017-Nov-15 19:00N 29°47' W 092°10'0 0.0
2017-Nov-15 18:30N 29°47' W 092°10'0 0.0
2017-Nov-15 18:00N 29°47' W 092°10'1 2.4
2017-Nov-15 17:30N 29°47' W 092°09'0 0.4
2017-Nov-15 17:00N 29°48' W 092°09'0 0.0
2017-Nov-15 16:30N 29°48' W 092°09'1 2.7
2017-Nov-15 16:00N 29°47' W 092°10'0 0.1
2017-Nov-15 15:30N 29°47' W 092°10'0 0.0
2017-Nov-15 15:00N 29°47' W 092°10'0 0.0
2017-Nov-15 14:30N 29°47' W 092°10'0 0.0
2017-Nov-15 14:00N 29°47' W 092°10'0 0.0
2017-Nov-15 13:30N 29°47' W 092°10'0 0.0
2017-Nov-15 13:00N 29°47' W 092°10'0 0.0
2017-Nov-15 12:30N 29°47' W 092°10'0 0.0
2017-Nov-15 12:00N 29°47' W 092°10'0 0.0
2017-Nov-15 11:30N 29°47' W 092°10'0 0.0
2017-Nov-15 11:00N 29°47' W 092°10'0 0.0
2017-Nov-15 10:30N 29°47' W 092°10'0 0.0
2017-Nov-15 10:00N 29°47' W 092°10'0 0.0
2017-Nov-15 09:30N 29°47' W 092°10'0 0.0
2017-Nov-15 09:00N 29°47' W 092°10'0 0.0
2017-Nov-15 08:30N 29°47' W 092°10'0 0.0
2017-Nov-15 08:00N 29°47' W 092°10'0 0.1
2017-Nov-15 07:30N 29°47' W 092°10'3 5.8
2017-Nov-15 07:00N 29°48' W 092°07'3 6.0
2017-Nov-15 06:30N 29°49' W 092°03'2 4.9
2017-Nov-15 06:00N 29°50' W 092°01'3 6.0
2017-Nov-15 05:30N 29°50' W 091°57'  
2017-Nov-11 13:46N 29°36' W 090°58'2 7.1
2017-Nov-11 13:30N 29°34' W 090°57'4 7.5
2017-Nov-11 12:59N 29°32' W 090°53'4 7.3
2017-Nov-11 12:30N 29°32' W 090°49'3 6.7
2017-Nov-11 12:00N 29°33' W 090°45'3 6.1
2017-Nov-11 11:30N 29°36' W 090°43'2 4.1
2017-Nov-11 11:00N 29°36' W 090°40'1 1.0
2017-Nov-11 10:30N 29°36' W 090°40'1 2.5
2017-Nov-11 10:00N 29°36' W 090°41'1 2.8
2017-Nov-11 09:30N 29°36' W 090°43'2 3.9
2017-Nov-11 09:00N 29°34' W 090°43'2 3.9
2017-Nov-11 08:31N 29°33' W 090°45'0 0.5
2017-Nov-11 08:00N 29°33' W 090°45'0 0.1
2017-Nov-11 07:30N 29°33' W 090°46'2 3.9
2017-Nov-11 07:00N 29°32' W 090°48'3 6.1
2017-Nov-11 06:30N 29°32' W 090°51'  
Track history (hours):
 
Tides and Currents Weather Stations Pressure Air Temp Water Temp Dewpoint Dewpoint Depression Visibility Wind Speed Wind Dir Waves Ship Positions

Capt Boo

Owner: CNETRAL BOAT RENTALS, BERWICK, LA. More information available from US FCC via Universal Licensing System and Coast Guard Vessel Documentation Center.

Last reported at 2017-Nov-17 03:13 UTC. Time now 2017-Nov-17 23:13 UTC.
Position N 29°26' W 090°43'.

Length 6 m; draft 2.3 m.

Type: Towing. MMSI: 367001950.

Date/timePositionNaut miles runAvg speedWind from/ knotsBaromVisibWave heightAir tempDewpointWater temp
2017-Nov-17 03:13N 29°26' W 090°43'1 4.8
2017-Nov-17 03:00N 29°27' W 090°43'2 4.6
2017-Nov-17 02:30N 29°29' W 090°43'2 4.5
2017-Nov-17 02:00N 29°31' W 090°42'2 4.4
2017-Nov-17 01:30N 29°34' W 090°43'1 2.8
2017-Nov-17 01:00N 29°34' W 090°44'1 1.3
2017-Nov-17 00:30N 29°34' W 090°45'1 1.0
2017-Nov-17 00:00N 29°33' W 090°45'1 2.9
2017-Nov-16 23:30N 29°32' W 090°46'3 5.7
2017-Nov-16 23:00N 29°32' W 090°50'55 3.3
2017-Nov-16 06:13N 29°49' W 091°50'7 1.9
2017-Nov-16 02:37N 29°50' W 091°58'1 5.6
2017-Nov-16 02:30N 29°50' W 091°58'3 5.8
2017-Nov-16 02:00N 29°49' W 092°01'3 5.9
2017-Nov-16 01:29N 29°48' W 092°05'3 6.0
2017-Nov-16 01:00N 29°47' W 092°08'2 3.5
2017-Nov-16 00:30N 29°47' W 092°10'0 0.1
2017-Nov-16 00:00N 29°47' W 092°10'0 0.0
2017-Nov-15 23:30N 29°47' W 092°10'0 0.0
2017-Nov-15 23:00N 29°47' W 092°10'0 0.0
2017-Nov-15 22:30N 29°47' W 092°10'0 0.0
2017-Nov-15 22:00N 29°47' W 092°10'0 0.0
2017-Nov-15 21:30N 29°47' W 092°10'0 0.0
2017-Nov-15 21:00N 29°47' W 092°10'0 0.0
2017-Nov-15 20:30N 29°47' W 092°10'0 0.0
2017-Nov-15 20:00N 29°47' W 092°10'0 0.0
2017-Nov-15 19:30N 29°47' W 092°10'0 0.0
2017-Nov-15 19:00N 29°47' W 092°10'0 0.0
2017-Nov-15 18:30N 29°47' W 092°10'0 0.0
2017-Nov-15 18:00N 29°47' W 092°10'1 2.4
2017-Nov-15 17:30N 29°47' W 092°09'0 0.4
2017-Nov-15 17:00N 29°48' W 092°09'0 0.0
2017-Nov-15 16:30N 29°48' W 092°09'1 2.7
2017-Nov-15 16:00N 29°47' W 092°10'0 0.1
2017-Nov-15 15:30N 29°47' W 092°10'0 0.0
2017-Nov-15 15:00N 29°47' W 092°10'0 0.0
2017-Nov-15 14:30N 29°47' W 092°10'0 0.0
2017-Nov-15 14:00N 29°47' W 092°10'0 0.0
2017-Nov-15 13:30N 29°47' W 092°10'0 0.0
2017-Nov-15 13:00N 29°47' W 092°10'0 0.0
2017-Nov-15 12:30N 29°47' W 092°10'0 0.0
2017-Nov-15 12:00N 29°47' W 092°10'0 0.0
2017-Nov-15 11:30N 29°47' W 092°10'0 0.0
2017-Nov-15 11:00N 29°47' W 092°10'0 0.0
2017-Nov-15 10:30N 29°47' W 092°10'0 0.0
2017-Nov-15 10:00N 29°47' W 092°10'0 0.0
2017-Nov-15 09:30N 29°47' W 092°10'0 0.0
2017-Nov-15 09:00N 29°47' W 092°10'0 0.0
2017-Nov-15 08:30N 29°47' W 092°10'0 0.0
2017-Nov-15 08:00N 29°47' W 092°10'0 0.1
2017-Nov-15 07:30N 29°47' W 092°10'3 5.8
2017-Nov-15 07:00N 29°48' W 092°07'3 6.0
2017-Nov-15 06:30N 29°49' W 092°03'2 4.9
2017-Nov-15 06:00N 29°50' W 092°01'3 6.0
2017-Nov-15 05:30N 29°50' W 091°57'  
2017-Nov-11 13:46N 29°36' W 090°58'2 7.1
2017-Nov-11 13:30N 29°34' W 090°57'4 7.5
2017-Nov-11 12:59N 29°32' W 090°53'4 7.3
2017-Nov-11 12:30N 29°32' W 090°49'3 6.7
2017-Nov-11 12:00N 29°33' W 090°45'3 6.1
2017-Nov-11 11:30N 29°36' W 090°43'2 4.1
2017-Nov-11 11:00N 29°36' W 090°40'1 1.0
2017-Nov-11 10:30N 29°36' W 090°40'1 2.5
2017-Nov-11 10:00N 29°36' W 090°41'1 2.8
2017-Nov-11 09:30N 29°36' W 090°43'2 3.9
2017-Nov-11 09:00N 29°34' W 090°43'2 3.9
2017-Nov-11 08:31N 29°33' W 090°45'0 0.5
2017-Nov-11 08:00N 29°33' W 090°45'0 0.1
2017-Nov-11 07:30N 29°33' W 090°46'2 3.9
2017-Nov-11 07:00N 29°32' W 090°48'3 6.1
2017-Nov-11 06:30N 29°32' W 090°51'  

Dump ship's entire track history